Time;durP1;ratioP1;P1;durP2;ratioP2;P2;SDS_P1;SDS_P2;PMS_P1;PMS_P2;Temp;Humidity;BMP_temperature;BMP_pressure;BME280_temperature;BME280_humidity;BME280_pressure;Samples;Min_cycle;Max_cycle;Signal;HPM_P1;HPM_P2
2023/09/03 00:01:32;;;;;;;1999.90;999.90;;;14.50;86.90;;;;;;5083647;28;20042;-73
2023/09/03 00:03:58;;;;;;;1999.90;999.90;;;14.40;87.00;;;;;;5087970;28;20397;-74
2023/09/03 00:06:23;;;;;;;1999.90;999.90;;;14.40;87.50;;;;;;5082071;28;20558;-74
2023/09/03 00:08:49;;;;;;;1999.90;999.90;;;14.50;87.80;;;;;;5082977;28;20119;-74
2023/09/03 00:11:15;;;;;;;1999.90;999.90;;;14.50;87.50;;;;;;5086970;28;20036;-74
2023/09/03 00:13:43;;;;;;;1999.90;999.90;;;14.50;88.20;;;;;;5086580;28;20055;-74
2023/09/03 00:16:09;;;;;;;1999.90;999.90;;;14.30;88.20;;;;;;5083782;28;20066;-74
2023/09/03 00:18:36;;;;;;;1999.90;999.90;;;14.40;89.10;;;;;;5082936;28;20402;-73
2023/09/03 00:21:04;;;;;;;1999.90;999.90;;;14.30;88.60;;;;;;5086348;28;20115;-73
2023/09/03 00:23:31;;;;;;;1999.90;999.90;;;14.30;88.30;;;;;;5088622;28;20036;-73
2023/09/03 00:26:01;;;;;;;1999.90;999.90;;;14.30;88.30;;;;;;5085852;28;20498;-74
2023/09/03 00:28:27;;;;;;;1999.90;999.90;;;14.20;88.20;;;;;;5081724;28;20040;-74
2023/09/03 00:31:04;;;;;;;1999.90;999.90;;;14.20;87.70;;;;;;5087995;28;20717;-74
2023/09/03 00:33:30;;;;;;;1999.90;999.90;;;14.10;87.90;;;;;;5086096;28;20036;-73
2023/09/03 00:35:56;;;;;;;1999.90;999.90;;;14.10;87.70;;;;;;5084040;28;20032;-73
2023/09/03 00:38:21;;;;;;;1999.90;999.90;;;14.10;87.70;;;;;;5085196;27;20819;-73
2023/09/03 00:40:47;;;;;;;1999.90;999.90;;;14.20;88.10;;;;;;5084886;28;20032;-74
2023/09/03 00:43:13;;;;;;;1999.90;999.90;;;14.10;88.30;;;;;;5082076;28;20033;-74
2023/09/03 00:45:42;;;;;;;1999.90;999.90;;;14.10;89.00;;;;;;5087895;28;20028;-74
2023/09/03 00:48:09;;;;;;;1999.90;999.90;;;14.10;88.90;;;;;;5085108;28;20035;-74
2023/09/03 00:50:37;;;;;;;1999.90;999.90;;;14.10;88.30;;;;;;5087618;28;20103;-73
2023/09/03 00:53:05;;;;;;;1999.90;999.90;;;14.00;88.20;;;;;;5083385;28;20028;-73
2023/09/03 00:55:32;;;;;;;1999.90;999.90;;;13.80;88.70;;;;;;5083417;28;20040;-73
2023/09/03 00:58:01;;;;;;;1999.90;999.90;;;13.90;89.10;;;;;;5083074;28;20127;-73
2023/09/03 01:00:27;;;;;;;1999.90;999.90;;;13.90;88.80;;;;;;5083685;28;20040;-74
2023/09/03 01:02:54;;;;;;;1999.90;999.90;;;13.90;89.10;;;;;;5085360;28;20482;-74
2023/09/03 01:05:20;;;;;;;1999.90;999.90;;;13.90;88.90;;;;;;5080180;28;20055;-74
2023/09/03 01:07:48;;;;;;;1999.90;999.90;;;13.90;89.00;;;;;;5081787;28;20592;-74
2023/09/03 01:10:14;;;;;;;1999.90;999.90;;;14.00;88.60;;;;;;5079578;28;20033;-74
2023/09/03 01:13:01;;;;;;;1999.90;999.90;;;13.90;88.50;;;;;;5084911;28;20887;-73
2023/09/03 01:15:35;;;;;;;1999.90;999.90;;;13.90;88.40;;;;;;5085032;28;20032;-74
2023/09/03 01:18:04;;;;;;;1999.90;999.90;;;14.00;88.00;;;;;;5082840;28;20532;-74
2023/09/03 01:20:42;;;;;;;1999.90;999.90;;;13.90;88.10;;;;;;5084306;28;20101;-74
2023/09/03 01:23:33;;;;;;;1999.90;999.90;;;13.90;88.60;;;;;;5080542;28;20028;-74
2023/09/03 01:26:31;;;;;;;1999.90;999.90;;;13.90;88.50;;;;;;5083611;28;20038;-74
2023/09/03 01:29:16;;;;;;;1999.90;999.90;;;14.00;90.00;;;;;;5077416;28;20029;-73
2023/09/03 01:31:43;;;;;;;1999.90;999.90;;;14.00;89.80;;;;;;5085354;28;20022;-73
2023/09/03 01:34:11;;;;;;;1999.90;999.90;;;13.90;89.80;;;;;;5080774;28;20806;-74
2023/09/03 01:36:37;;;;;;;1999.90;999.90;;;14.00;90.20;;;;;;5084451;28;20035;-73
2023/09/03 01:39:03;;;;;;;1999.90;999.90;;;14.00;90.30;;;;;;5084178;28;20035;-73
2023/09/03 01:41:33;;;;;;;1999.90;999.90;;;13.90;90.10;;;;;;5081458;28;20097;-74
2023/09/03 01:44:00;;;;;;;1999.90;999.90;;;13.90;89.80;;;;;;5081801;28;20764;-74
2023/09/03 01:46:40;;;;;;;1999.90;999.90;;;13.90;89.60;;;;;;5086082;28;20058;-73
2023/09/03 01:49:21;;;;;;;1999.90;999.90;;;13.80;89.40;;;;;;5085702;28;20031;-73
2023/09/03 01:51:58;;;;;;;1999.90;999.90;;;13.80;88.90;;;;;;5082256;28;20055;-74
2023/09/03 01:54:24;;;;;;;1999.90;999.90;;;13.80;89.60;;;;;;5078098;28;20094;-73
2023/09/03 01:57:18;;;;;;;1999.90;999.90;;;13.90;89.40;;;;;;5082278;28;20036;-74
2023/09/03 01:59:48;;;;;;;1999.90;999.90;;;13.90;89.40;;;;;;5081286;28;20044;-73
2023/09/03 02:02:15;;;;;;;1999.90;999.90;;;13.80;89.70;;;;;;5075443;28;20047;-73
2023/09/03 02:04:40;;;;;;;1999.90;999.90;;;13.80;90.20;;;;;;5079831;28;20032;-73
2023/09/03 02:07:06;;;;;;;1999.90;999.90;;;13.80;90.30;;;;;;5080483;28;20498;-74
2023/09/03 02:09:32;;;;;;;1999.90;999.90;;;13.80;90.20;;;;;;5083591;28;20089;-74
2023/09/03 02:11:58;;;;;;;1999.90;999.90;;;13.70;90.40;;;;;;5085738;28;20029;-74
2023/09/03 02:14:24;;;;;;;1999.90;999.90;;;13.70;90.50;;;;;;5085169;28;20113;-74
2023/09/03 02:16:50;;;;;;;1999.90;999.90;;;13.70;90.60;;;;;;5082925;28;20493;-74
2023/09/03 02:19:16;;;;;;;1999.90;999.90;;;13.70;90.60;;;;;;5081156;28;20036;-73
2023/09/03 02:21:42;;;;;;;1999.90;999.90;;;13.70;90.80;;;;;;5084786;28;20035;-73
2023/09/03 02:24:07;;;;;;;1999.90;999.90;;;13.70;90.80;;;;;;5078741;28;20059;-73
2023/09/03 02:26:40;;;;;;;1999.90;999.90;;;13.70;90.80;;;;;;5081098;28;20028;-73
2023/09/03 02:29:06;;;;;;;1999.90;999.90;;;13.70;90.80;;;;;;5081872;28;20035;-73
2023/09/03 02:31:31;;;;;;;1999.90;999.90;;;13.70;90.70;;;;;;5083719;28;20033;-73
2023/09/03 02:33:57;;;;;;;1999.90;999.90;;;13.70;90.60;;;;;;5076513;28;20043;-73
2023/09/03 02:36:23;;;;;;;1999.90;999.90;;;13.70;90.90;;;;;;5083963;28;20028;-74
2023/09/03 02:39:00;;;;;;;1999.90;999.90;;;13.70;91.00;;;;;;5076783;28;20071;-73
2023/09/03 02:41:26;;;;;;;1999.90;999.90;;;13.70;91.10;;;;;;5080542;28;20040;-74
2023/09/03 02:43:52;;;;;;;1999.90;999.90;;;13.70;91.00;;;;;;5084408;28;20028;-73
2023/09/03 02:46:17;;;;;;;1999.90;999.90;;;13.70;90.90;;;;;;5082539;28;21393;-74
2023/09/03 02:48:43;;;;;;;1999.90;999.90;;;13.70;90.80;;;;;;5086557;28;20455;-73
2023/09/03 02:51:09;;;;;;;1999.90;999.90;;;13.60;90.80;;;;;;5077825;28;20037;-74
2023/09/03 02:53:34;;;;;;;1999.90;999.90;;;13.60;90.50;;;;;;5084405;28;20055;-73
2023/09/03 02:56:01;;;;;;;1999.90;999.90;;;13.60;90.40;;;;;;5084650;28;20048;-73
2023/09/03 02:58:27;;;;;;;1999.90;999.90;;;13.50;90.30;;;;;;5084405;28;20036;-73
2023/09/03 03:00:53;;;;;;;1999.90;999.90;;;13.40;90.20;;;;;;5086765;28;20043;-74
2023/09/03 03:03:18;;;;;;;1999.90;999.90;;;13.40;90.00;;;;;;5080499;28;20040;-73
2023/09/03 03:05:44;;;;;;;1999.90;999.90;;;13.40;90.20;;;;;;5086336;28;20035;-73
2023/09/03 03:08:09;;;;;;;1999.90;999.90;;;13.40;90.20;;;;;;5080864;28;20024;-74
2023/09/03 03:10:35;;;;;;;1999.90;999.90;;;13.40;90.20;;;;;;5078370;28;20498;-74
2023/09/03 03:13:01;;;;;;;1999.90;999.90;;;13.50;90.10;;;;;;5079379;28;20039;-74
2023/09/03 03:15:27;;;;;;;1999.90;999.90;;;13.30;90.20;;;;;;5083201;28;20024;-73
2023/09/03 03:17:52;;;;;;;1999.90;999.90;;;13.30;90.20;;;;;;5078777;28;20024;-73
2023/09/03 03:20:20;;;;;;;1999.90;999.90;;;13.40;90.30;;;;;;5085730;28;20036;-74
2023/09/03 03:22:46;;;;;;;1999.90;999.90;;;13.40;90.30;;;;;;5088528;28;20042;-74
2023/09/03 03:25:11;;;;;;;1999.90;999.90;;;13.30;90.40;;;;;;5088446;28;21177;-73
2023/09/03 03:27:37;;;;;;;1999.90;999.90;;;13.40;90.40;;;;;;5088743;28;20024;-73
2023/09/03 03:30:04;;;;;;;1999.90;999.90;;;13.40;90.30;;;;;;5088459;28;20151;-73
2023/09/03 03:32:30;;;;;;;1999.90;999.90;;;13.50;90.60;;;;;;5083163;28;20111;-73
2023/09/03 03:34:56;;;;;;;1999.90;999.90;;;13.40;90.50;;;;;;5080893;28;20455;-73
2023/09/03 03:37:21;;;;;;;1999.90;999.90;;;13.50;90.60;;;;;;5079164;28;20046;-74
2023/09/03 03:39:50;;;;;;;1999.90;999.90;;;13.50;90.40;;;;;;5080460;28;20087;-73
2023/09/03 03:42:16;;;;;;;1999.90;999.90;;;13.50;90.40;;;;;;5085211;28;20047;-74
2023/09/03 03:44:42;;;;;;;1999.90;999.90;;;13.30;90.50;;;;;;5085797;28;20044;-73
2023/09/03 03:47:08;;;;;;;1999.90;999.90;;;13.30;90.30;;;;;;5083301;28;20115;-73
2023/09/03 03:49:33;;;;;;;1999.90;999.90;;;13.30;90.60;;;;;;5085702;28;20040;-72
2023/09/03 03:51:59;;;;;;;1999.90;999.90;;;13.10;90.30;;;;;;5087059;28;20028;-74
2023/09/03 03:54:24;;;;;;;1999.90;999.90;;;13.00;90.30;;;;;;5088921;28;20079;-73
2023/09/03 03:56:50;;;;;;;1999.90;999.90;;;13.00;90.60;;;;;;5084942;28;20028;-73
2023/09/03 03:59:16;;;;;;;1999.90;999.90;;;13.10;91.10;;;;;;5087629;28;20446;-73
2023/09/03 04:01:41;;;;;;;1999.90;999.90;;;13.10;91.10;;;;;;5082161;28;20115;-73
2023/09/03 04:04:07;;;;;;;1999.90;999.90;;;13.10;91.50;;;;;;5081323;28;20578;-73
2023/09/03 04:06:33;;;;;;;1999.90;999.90;;;13.10;91.60;;;;;;5082545;28;20505;-72
2023/09/03 04:08:58;;;;;;;1999.90;999.90;;;13.10;91.70;;;;;;5080740;28;20086;-72
2023/09/03 04:11:24;;;;;;;1999.90;999.90;;;13.10;91.60;;;;;;5080636;28;20107;-73
2023/09/03 04:13:50;;;;;;;1999.90;999.90;;;13.10;91.60;;;;;;5077916;28;20021;-73
2023/09/03 04:16:19;;;;;;;1999.90;999.90;;;13.10;91.60;;;;;;5082521;28;20032;-73
2023/09/03 04:18:45;;;;;;;1999.90;999.90;;;13.10;91.60;;;;;;5087518;28;20078;-73
2023/09/03 04:21:11;;;;;;;1999.90;999.90;;;13.10;91.40;;;;;;5081381;28;20484;-73
2023/09/03 04:23:37;;;;;;;1999.90;999.90;;;13.10;91.60;;;;;;5085869;28;20401;-73
2023/09/03 04:26:03;;;;;;;1999.90;999.90;;;13.20;91.50;;;;;;5085470;28;20024;-73
2023/09/03 04:28:29;;;;;;;1999.90;999.90;;;13.10;91.40;;;;;;5086306;28;20045;-73
2023/09/03 04:30:59;;;;;;;1999.90;999.90;;;13.10;91.40;;;;;;5081199;28;20141;-73
2023/09/03 04:33:26;;;;;;;1999.90;999.90;;;13.20;91.30;;;;;;5085232;28;20075;-73
2023/09/03 04:35:56;;;;;;;1999.90;999.90;;;13.10;91.40;;;;;;5078125;28;20025;-73
2023/09/03 04:38:21;;;;;;;1999.90;999.90;;;13.10;91.50;;;;;;5079162;28;20036;-73
2023/09/03 04:40:47;;;;;;;1999.90;999.90;;;13.10;91.40;;;;;;5074644;28;20040;-73
2023/09/03 04:43:13;;;;;;;1999.90;999.90;;;13.20;91.40;;;;;;5077933;28;20028;-73
2023/09/03 04:45:48;;;;;;;1999.90;999.90;;;13.20;91.40;;;;;;5081022;28;20050;-72
2023/09/03 04:48:18;;;;;;;1999.90;999.90;;;13.10;91.20;;;;;;5083771;28;20532;-72
2023/09/03 04:50:44;;;;;;;1999.90;999.90;;;13.20;91.10;;;;;;5084100;28;20053;-74
2023/09/03 04:53:11;;;;;;;1999.90;999.90;;;13.30;91.00;;;;;;5073200;28;20170;-73
2023/09/03 04:55:38;;;;;;;1999.90;999.90;;;13.40;91.00;;;;;;5078507;28;20048;-73
2023/09/03 04:58:04;;;;;;;1999.90;999.90;;;13.30;91.00;;;;;;5083273;28;20529;-73
2023/09/03 05:00:30;;;;;;;1999.90;999.90;;;13.40;91.00;;;;;;5078776;28;20149;-73
2023/09/03 05:02:59;;;;;;;1999.90;999.90;;;13.40;91.00;;;;;;5079242;28;20023;-74
2023/09/03 05:05:25;;;;;;;1999.90;999.90;;;13.40;91.00;;;;;;5076668;28;20111;-74
2023/09/03 05:07:51;;;;;;;1999.90;999.90;;;13.40;90.90;;;;;;5083259;28;20032;-73
2023/09/03 05:10:18;;;;;;;1999.90;999.90;;;13.40;91.00;;;;;;5084629;28;20024;-73
2023/09/03 05:12:44;;;;;;;1999.90;999.90;;;13.40;90.90;;;;;;5085880;28;20031;-73
2023/09/03 05:15:11;;;;;;;1999.90;999.90;;;13.50;90.80;;;;;;5084147;28;20028;-74
2023/09/03 05:17:37;;;;;;;1999.90;999.90;;;13.60;90.60;;;;;;5080950;28;20024;-73
2023/09/03 05:20:03;;;;;;;1999.90;999.90;;;13.70;90.50;;;;;;5079694;28;20612;-74
2023/09/03 05:22:29;;;;;;;1999.90;999.90;;;13.80;90.30;;;;;;5086678;28;20059;-74
2023/09/03 05:24:55;;;;;;;1999.90;999.90;;;13.80;90.00;;;;;;5084623;28;20060;-74
2023/09/03 05:27:20;;;;;;;1999.90;999.90;;;13.80;90.20;;;;;;5080027;28;20033;-75
2023/09/03 05:29:46;;;;;;;1999.90;999.90;;;13.80;90.00;;;;;;5076025;28;20081;-73
2023/09/03 05:32:12;;;;;;;1999.90;999.90;;;14.00;90.20;;;;;;5071967;28;20827;-73
2023/09/03 05:34:37;;;;;;;1999.90;999.90;;;13.90;90.10;;;;;;5082461;28;20043;-73
2023/09/03 05:37:03;;;;;;;1999.90;999.90;;;14.00;90.30;;;;;;5083913;28;20107;-73
2023/09/03 05:39:29;;;;;;;1999.90;999.90;;;14.10;90.50;;;;;;5077990;28;20122;-75
2023/09/03 05:41:55;;;;;;;1999.90;999.90;;;14.00;90.40;;;;;;5079826;28;20407;-73
2023/09/03 05:44:21;;;;;;;1999.90;999.90;;;14.10;90.30;;;;;;5074504;28;20047;-74
2023/09/03 05:46:46;;;;;;;1999.90;999.90;;;14.10;90.50;;;;;;5084694;28;20039;-73
2023/09/03 05:49:12;;;;;;;1999.90;999.90;;;14.30;90.30;;;;;;5085001;28;20387;-73
2023/09/03 05:51:39;;;;;;;1999.90;999.90;;;14.30;90.40;;;;;;5083543;28;20046;-73
2023/09/03 05:54:06;;;;;;;1999.90;999.90;;;14.30;90.30;;;;;;5082665;28;20498;-73
2023/09/03 05:56:32;;;;;;;1999.90;999.90;;;14.40;90.30;;;;;;5077334;28;20682;-74
2023/09/03 05:59:04;;;;;;;1999.90;999.90;;;14.50;90.20;;;;;;5077070;28;20062;-74
2023/09/03 06:01:29;;;;;;;1999.90;999.90;;;14.50;90.40;;;;;;5081008;28;20113;-74
2023/09/03 06:03:55;;;;;;;1999.90;999.90;;;14.60;90.20;;;;;;5080561;28;20450;-74
2023/09/03 06:06:21;;;;;;;1999.90;999.90;;;14.70;90.10;;;;;;5076237;28;20114;-74
2023/09/03 06:08:46;;;;;;;1999.90;999.90;;;14.80;90.00;;;;;;5080777;28;20111;-74
2023/09/03 06:11:12;;;;;;;1999.90;999.90;;;14.80;90.20;;;;;;5082004;28;20071;-74
2023/09/03 06:13:38;;;;;;;1999.90;999.90;;;14.90;90.50;;;;;;5082161;28;20028;-74
2023/09/03 06:16:03;;;;;;;1999.90;999.90;;;14.90;90.80;;;;;;5083675;28;20532;-74
2023/09/03 06:18:29;;;;;;;1999.90;999.90;;;15.00;90.90;;;;;;5081635;28;20037;-74
2023/09/03 06:20:55;;;;;;;1999.90;999.90;;;15.10;90.70;;;;;;5078890;28;20055;-74
2023/09/03 06:23:21;;;;;;;1999.90;999.90;;;15.20;90.70;;;;;;5072384;28;20379;-73
2023/09/03 06:25:48;;;;;;;1999.90;999.90;;;15.30;90.60;;;;;;5074940;28;20028;-73
2023/09/03 06:28:14;;;;;;;1999.90;999.90;;;15.50;90.50;;;;;;5080375;28;20505;-73
2023/09/03 06:30:40;;;;;;;1999.90;999.90;;;15.60;89.50;;;;;;5076591;28;20047;-74
2023/09/03 06:33:07;;;;;;;1999.90;999.90;;;15.80;89.10;;;;;;5079275;28;20414;-73
2023/09/03 06:35:32;;;;;;;1999.90;999.90;;;15.70;89.30;;;;;;5080482;28;20103;-74
2023/09/03 06:37:59;;;;;;;1999.90;999.90;;;15.90;89.10;;;;;;5077971;28;20450;-74
2023/09/03 06:40:25;;;;;;;1999.90;999.90;;;16.00;88.40;;;;;;5078326;28;20033;-73
2023/09/03 06:42:52;;;;;;;1999.90;999.90;;;16.20;88.70;;;;;;5082116;28;20043;-73
2023/09/03 06:45:20;;;;;;;1999.90;999.90;;;16.20;88.90;;;;;;5083350;28;20105;-73
2023/09/03 06:47:46;;;;;;;1999.90;999.90;;;16.30;88.30;;;;;;5078251;28;20052;-73
2023/09/03 06:50:12;;;;;;;1999.90;999.90;;;16.50;88.10;;;;;;5084694;28;20040;-73
2023/09/03 06:52:38;;;;;;;1999.90;999.90;;;16.70;87.30;;;;;;5075794;28;20032;-73
2023/09/03 06:55:04;;;;;;;1999.90;999.90;;;16.80;86.50;;;;;;5081733;28;20234;-73
2023/09/03 06:57:31;;;;;;;1999.90;999.90;;;16.90;86.70;;;;;;5082064;28;20037;-73
2023/09/03 06:59:57;;;;;;;1999.90;999.90;;;17.10;87.00;;;;;;5082666;28;20486;-74
2023/09/03 07:02:23;;;;;;;1999.90;999.90;;;17.40;86.10;;;;;;5085746;28;20038;-72
2023/09/03 07:04:49;;;;;;;1999.90;999.90;;;17.40;85.10;;;;;;5081573;28;20551;-73
2023/09/03 07:07:15;;;;;;;1999.90;999.90;;;17.40;84.80;;;;;;5080408;28;20044;-74
2023/09/03 07:09:40;;;;;;;1999.90;999.90;;;17.60;86.10;;;;;;5082717;28;20428;-74
2023/09/03 07:12:06;;;;;;;1999.90;999.90;;;17.90;84.80;;;;;;5084403;28;20093;-74
2023/09/03 07:14:33;;;;;;;1999.90;999.90;;;18.00;84.50;;;;;;5088810;28;20039;-73
2023/09/03 07:17:00;;;;;;;1999.90;999.90;;;18.20;83.20;;;;;;5084419;28;20040;-74
2023/09/03 07:19:27;;;;;;;1999.90;999.90;;;18.40;82.60;;;;;;5088011;28;20077;-74
2023/09/03 07:21:52;;;;;;;1999.90;999.90;;;18.40;81.10;;;;;;5086905;28;20469;-74
2023/09/03 07:24:18;;;;;;;1999.90;999.90;;;18.50;82.90;;;;;;5090651;28;20043;-73
2023/09/03 07:26:44;;;;;;;1999.90;999.90;;;18.70;83.00;;;;;;5088126;28;20050;-73
2023/09/03 07:29:10;;;;;;;1999.90;999.90;;;18.60;81.10;;;;;;5085284;28;20126;-73
2023/09/03 07:31:40;;;;;;;1999.90;999.90;;;18.60;81.30;;;;;;5089892;28;20423;-73
2023/09/03 07:34:07;;;;;;;1999.90;999.90;;;18.80;80.50;;;;;;5083179;28;20445;-73
2023/09/03 07:36:33;;;;;;;1999.90;999.90;;;18.80;81.30;;;;;;5087498;28;20020;-75
2023/09/03 07:38:59;;;;;;;1999.90;999.90;;;18.90;80.80;;;;;;5081319;28;20058;-76
2023/09/03 07:41:24;;;;;;;1999.90;999.90;;;19.10;79.20;;;;;;5083199;28;20042;-77
2023/09/03 07:43:51;;;;;;;1999.90;999.90;;;19.10;79.00;;;;;;5088139;28;20028;-75
2023/09/03 07:46:18;;;;;;;1999.90;999.90;;;19.20;79.40;;;;;;5087165;28;20036;-76
2023/09/03 07:48:43;;;;;;;1999.90;999.90;;;19.20;79.40;;;;;;5088639;28;20598;-77
2023/09/03 07:51:09;;;;;;;1999.90;999.90;;;19.50;76.80;;;;;;5083548;28;20037;-77
2023/09/03 07:53:35;;;;;;;1999.90;999.90;;;19.70;76.20;;;;;;5081987;28;20040;-76
2023/09/03 07:56:00;;;;;;;1999.90;999.90;;;20.10;74.40;;;;;;5084453;28;20071;-77
2023/09/03 07:58:26;;;;;;;1999.90;999.90;;;20.40;73.80;;;;;;5086386;28;20036;-78
2023/09/03 08:00:53;;;;;;;1999.90;999.90;;;20.40;73.00;;;;;;5081043;28;20044;-79
2023/09/03 08:03:18;;;;;;;1999.90;999.90;;;20.60;73.40;;;;;;5082631;28;20031;-79
2023/09/03 08:05:44;;;;;;;1999.90;999.90;;;20.60;73.50;;;;;;5085871;28;20047;-78
2023/09/03 08:08:10;;;;;;;1999.90;999.90;;;20.70;73.80;;;;;;5078564;28;20555;-79
2023/09/03 08:10:35;;;;;;;1999.90;999.90;;;21.00;72.70;;;;;;5082172;28;20130;-79
2023/09/03 08:13:01;;;;;;;1999.90;999.90;;;21.30;71.10;;;;;;5082537;28;20072;-79
2023/09/03 08:15:27;;;;;;;1999.90;999.90;;;21.40;71.60;;;;;;5085605;28;20036;-78
2023/09/03 08:17:52;;;;;;;1999.90;999.90;;;21.10;71.20;;;;;;5083400;28;20652;-78
2023/09/03 08:20:19;;;;;;;1999.90;999.90;;;21.40;71.30;;;;;;5082774;28;20035;-79
2023/09/03 08:22:46;;;;;;;1999.90;999.90;;;21.20;71.20;;;;;;5079853;28;20093;-80
2023/09/03 08:25:11;;;;;;;1999.90;999.90;;;21.20;70.80;;;;;;5083760;28;20166;-78
2023/09/03 08:27:38;;;;;;;1999.90;999.90;;;21.20;72.90;;;;;;5083841;28;20548;-79
2023/09/03 08:30:05;;;;;;;1999.90;999.90;;;21.00;72.60;;;;;;5081934;28;20036;-77
2023/09/03 08:32:30;;;;;;;1999.90;999.90;;;21.20;71.20;;;;;;5083611;28;20055;-78
2023/09/03 08:34:56;;;;;;;1999.90;999.90;;;21.40;71.40;;;;;;5086880;28;20069;-77
2023/09/03 08:37:26;;;;;;;1999.90;999.90;;;21.50;70.00;;;;;;5078089;28;20451;-78
2023/09/03 08:39:52;;;;;;;1999.90;999.90;;;21.70;69.90;;;;;;5079234;28;20032;-77
2023/09/03 08:42:19;;;;;;;1999.90;999.90;;;21.90;67.50;;;;;;5081559;28;20032;-78
2023/09/03 08:44:55;;;;;;;1999.90;999.90;;;21.80;68.50;;;;;;5077796;28;20031;-77
2023/09/03 08:47:22;;;;;;;1999.90;999.90;;;21.80;67.00;;;;;;5083605;28;20120;-79
2023/09/03 08:49:48;;;;;;;1999.90;999.90;;;21.70;66.40;;;;;;5081547;28;20040;-78
2023/09/03 08:52:16;;;;;;;1999.90;999.90;;;21.90;68.00;;;;;;5079350;28;20421;-80
2023/09/03 08:54:41;;;;;;;1999.90;999.90;;;22.30;65.60;;;;;;5084800;28;20056;-79
2023/09/03 08:57:09;;;;;;;1999.90;999.90;;;22.40;67.10;;;;;;5086570;28;20028;-78
2023/09/03 08:59:35;;;;;;;1999.90;999.90;;;22.20;67.00;;;;;;5082911;28;20051;-80
2023/09/03 09:02:01;;;;;;;1999.90;999.90;;;22.50;67.00;;;;;;5081839;28;20020;-80
2023/09/03 09:04:30;;;;;;;1999.90;999.90;;;22.60;65.90;;;;;;5084681;28;20079;-78
2023/09/03 09:07:00;;;;;;;1999.90;999.90;;;22.50;66.00;;;;;;5079775;28;20114;-81
2023/09/03 09:09:29;;;;;;;1999.90;999.90;;;22.70;65.30;;;;;;5082188;28;20035;-80
2023/09/03 09:12:05;;;;;;;1999.90;999.90;;;22.60;67.10;;;;;;5083932;28;20054;-81
2023/09/03 09:14:39;;;;;;;1999.90;999.90;;;22.80;65.50;;;;;;5080357;28;20008;-81
2023/09/03 09:17:12;;;;;;;1999.90;999.90;;;22.90;65.60;;;;;;5080449;28;20029;-81
2023/09/03 09:19:38;;;;;;;1999.90;999.90;;;23.00;62.30;;;;;;5082680;28;20506;-82
2023/09/03 09:22:04;;;;;;;1999.90;999.90;;;23.20;63.10;;;;;;5082293;28;20086;-81
2023/09/03 09:24:30;;;;;;;1999.90;999.90;;;23.30;62.90;;;;;;5084642;28;20036;-82
2023/09/03 09:27:17;;;;;;;1999.90;999.90;;;23.80;63.10;;;;;;5082602;28;20707;-83
2023/09/03 09:29:43;;;;;;;1999.90;999.90;;;23.80;62.00;;;;;;5084172;28;20478;-83
2023/09/03 09:32:20;;;;;;;1999.90;999.90;;;23.80;61.50;;;;;;5083798;28;20024;-83
2023/09/03 09:34:46;;;;;;;1999.90;999.90;;;23.90;58.30;;;;;;5086829;28;20028;-84
2023/09/03 09:37:15;;;;;;;1999.90;999.90;;;23.80;57.30;;;;;;5084840;28;20108;-83
2023/09/03 09:39:45;;;;;;;1999.90;999.90;;;24.20;59.00;;;;;;5083060;28;20043;-81
2023/09/03 09:42:18;;;;;;;1999.90;999.90;;;24.10;57.40;;;;;;5084226;28;20050;-82
2023/09/03 09:44:53;;;;;;;1999.90;999.90;;;24.10;58.10;;;;;;5081898;28;20528;-83
2023/09/03 09:47:20;;;;;;;1999.90;999.90;;;24.20;59.00;;;;;;5081263;28;20043;-82
2023/09/03 09:49:46;;;;;;;1999.90;999.90;;;24.10;61.10;;;;;;5084260;28;20063;-82
2023/09/03 09:52:15;;;;;;;1999.90;999.90;;;24.60;57.30;;;;;;5082127;28;20024;-83
2023/09/03 09:54:44;;;;;;;1999.90;999.90;;;24.40;57.40;;;;;;5086272;28;20048;-83
2023/09/03 09:57:16;;;;;;;1999.90;999.90;;;24.60;57.70;;;;;;5080700;28;20149;-82
2023/09/03 09:59:42;;;;;;;1999.90;999.90;;;24.20;58.90;;;;;;5078968;28;20216;-84
2023/09/03 10:02:16;;;;;;;1999.90;999.90;;;24.10;59.40;;;;;;5084494;28;20039;-82
2023/09/03 10:04:47;;;;;;;1999.90;999.90;;;24.40;61.10;;;;;;5088227;28;20064;-83
2023/09/03 10:07:13;;;;;;;1999.90;999.90;;;23.90;59.50;;;;;;5088322;28;20040;-83
2023/09/03 10:09:40;;;;;;;1999.90;999.90;;;24.50;59.00;;;;;;5089990;28;20080;-82
2023/09/03 10:12:07;;;;;;;1999.90;999.90;;;24.60;60.20;;;;;;5086524;28;20037;-82
2023/09/03 10:14:34;;;;;;;1999.90;999.90;;;24.80;58.30;;;;;;5090648;28;20404;-82
2023/09/03 10:17:01;;;;;;;1999.90;999.90;;;24.60;57.20;;;;;;5083703;28;20039;-81
2023/09/03 10:19:34;;;;;;;1999.90;999.90;;;24.90;56.30;;;;;;5083279;28;20032;-81
2023/09/03 10:22:02;;;;;;;1999.90;999.90;;;24.90;55.60;;;;;;5080181;28;20105;-81
2023/09/03 10:24:30;;;;;;;1999.90;999.90;;;25.10;57.50;;;;;;5080870;28;20170;-82
2023/09/03 10:26:59;;;;;;;1999.90;999.90;;;25.10;55.10;;;;;;5078383;28;20033;-79
2023/09/03 10:29:27;;;;;;;1999.90;999.90;;;25.60;55.20;;;;;;5086958;28;20028;-82
2023/09/03 10:31:54;;;;;;;1999.90;999.90;;;25.50;53.70;;;;;;5080481;28;20486;-81
2023/09/03 10:34:20;;;;;;;1999.90;999.90;;;25.20;55.60;;;;;;5078682;28;20137;-80
2023/09/03 10:37:20;;;;;;;1999.90;999.90;;;25.20;54.10;;;;;;5083230;28;20050;-80
2023/09/03 10:39:46;;;;;;;1999.90;999.90;;;25.30;54.90;;;;;;5059576;28;20135;-80
2023/09/03 10:42:15;;;;;;;1999.90;999.90;;;25.60;55.60;;;;;;5080684;28;20189;-80
2023/09/03 10:44:49;;;;;;;1999.90;999.90;;;25.70;55.20;;;;;;5085165;28;20036;-81
2023/09/03 10:47:17;;;;;;;1999.90;999.90;;;25.80;54.00;;;;;;5084181;28;20021;-80
2023/09/03 10:49:48;;;;;;;1999.90;999.90;;;26.00;53.90;;;;;;5083501;28;20040;-80
2023/09/03 10:52:32;;;;;;;1999.90;999.90;;;26.10;53.10;;;;;;5079962;28;20028;-79
2023/09/03 10:55:19;;;;;;;1999.90;999.90;;;25.30;52.80;;;;;;5083832;28;20044;-79
2023/09/03 10:58:16;;;;;;;1999.90;999.90;;;25.60;50.50;;;;;;5081681;28;20044;-81
2023/09/03 11:01:18;;;;;;;1999.90;999.90;;;25.80;51.80;;;;;;5085567;28;20031;-81
2023/09/03 11:03:48;;;;;;;1999.90;999.90;;;25.60;49.70;;;;;;5086146;28;20084;-81
2023/09/03 11:06:21;;;;;;;1999.90;999.90;;;26.30;48.10;;;;;;5076734;28;20567;-81
2023/09/03 11:09:10;;;;;;;1999.90;999.90;;;26.90;46.50;;;;;;5079159;28;20041;-81
2023/09/03 11:11:38;;;;;;;1999.90;999.90;;;27.30;48.70;;;;;;5070213;28;20033;-81
2023/09/03 11:14:06;;;;;;;1999.90;999.90;;;27.20;45.20;;;;;;5077048;28;20085;-80
2023/09/03 11:16:37;;;;;;;1999.90;999.90;;;27.40;46.10;;;;;;5081767;28;20035;-80
2023/09/03 11:19:04;;;;;;;1999.90;999.90;;;26.70;47.80;;;;;;5080209;28;20047;-84
2023/09/03 11:21:30;;;;;;;1999.90;999.90;;;26.60;51.10;;;;;;5082247;28;20068;-80
2023/09/03 11:24:20;;;;;;;1999.90;999.90;;;26.80;48.30;;;;;;5079339;28;20482;-80
2023/09/03 11:27:02;;;;;;;1999.90;999.90;;;27.60;48.90;;;;;;5078806;28;20036;-80
2023/09/03 11:29:28;;;;;;;1999.90;999.90;;;27.50;48.50;;;;;;5082969;28;20024;-79
2023/09/03 11:31:54;;;;;;;1999.90;999.90;;;27.50;48.00;;;;;;5081027;28;20780;-78
2023/09/03 11:34:24;;;;;;;1999.90;999.90;;;27.50;47.50;;;;;;5076167;28;20041;-79
2023/09/03 11:36:50;;;;;;;1999.90;999.90;;;28.40;47.20;;;;;;5083048;28;20526;-79
2023/09/03 11:39:17;;;;;;;1999.90;999.90;;;28.10;45.00;;;;;;5079967;28;20095;-80
2023/09/03 11:41:46;;;;;;;1999.90;999.90;;;28.40;44.60;;;;;;5083645;28;20044;-79
2023/09/03 11:44:15;;;;;;;1999.90;999.90;;;28.10;43.40;;;;;;5083807;28;20493;-80
2023/09/03 11:46:54;;;;;;;1999.90;999.90;;;28.20;40.60;;;;;;5082737;28;20044;-79
2023/09/03 11:49:23;;;;;;;1999.90;999.90;;;27.90;42.80;;;;;;5079163;28;20076;-79
2023/09/03 11:51:48;;;;;;;1999.90;999.90;;;28.20;42.00;;;;;;5084653;28;20115;-81
2023/09/03 11:54:26;;;;;;;1999.90;999.90;;;29.10;41.40;;;;;;5086001;28;20143;-80
2023/09/03 11:56:57;;;;;;;1999.90;999.90;;;29.40;40.40;;;;;;5082228;28;20052;-80
2023/09/03 11:59:23;;;;;;;1999.90;999.90;;;28.60;41.00;;;;;;5085535;28;20024;-81
2023/09/03 12:01:50;;;;;;;1999.90;999.90;;;27.90;42.20;;;;;;5078420;28;20045;-80
2023/09/03 12:04:16;;;;;;;1999.90;999.90;;;28.40;43.80;;;;;;5086235;28;20043;-79